sensor_id;sensor_type;location;lat;lon;timestamp;P1;durP1;ratioP1;P2;durP2;ratioP2
68192;SDS011;55012;47.562;18.414;2022-07-29T00:02:20;21.95;;;10.95;;
68192;SDS011;55012;47.562;18.414;2022-07-29T00:04:46;13.93;;;7.40;;
68192;SDS011;55012;47.562;18.414;2022-07-29T00:07:11;15.18;;;9.77;;
68192;SDS011;55012;47.562;18.414;2022-07-29T00:09:37;16.17;;;7.55;;
68192;SDS011;55012;47.562;18.414;2022-07-29T00:12:02;13.80;;;7.45;;
68192;SDS011;55012;47.562;18.414;2022-07-29T00:14:28;11.95;;;7.18;;
68192;SDS011;55012;47.562;18.414;2022-07-29T00:16:54;14.27;;;7.60;;
68192;SDS011;55012;47.562;18.414;2022-07-29T00:19:19;12.07;;;7.53;;
68192;SDS011;55012;47.562;18.414;2022-07-29T00:21:45;11.27;;;7.00;;
68192;SDS011;55012;47.562;18.414;2022-07-29T00:24:10;12.48;;;7.53;;
68192;SDS011;55012;47.562;18.414;2022-07-29T00:26:36;13.48;;;8.07;;
68192;SDS011;55012;47.562;18.414;2022-07-29T00:29:02;10.65;;;6.72;;
68192;SDS011;55012;47.562;18.414;2022-07-29T00:31:29;13.10;;;6.93;;
68192;SDS011;55012;47.562;18.414;2022-07-29T00:33:54;15.48;;;8.40;;
68192;SDS011;55012;47.562;18.414;2022-07-29T00:36:20;20.65;;;11.57;;
68192;SDS011;55012;47.562;18.414;2022-07-29T00:38:47;19.92;;;10.75;;
68192;SDS011;55012;47.562;18.414;2022-07-29T00:41:13;21.30;;;10.30;;
68192;SDS011;55012;47.562;18.414;2022-07-29T00:43:39;13.20;;;8.35;;
68192;SDS011;55012;47.562;18.414;2022-07-29T00:46:04;12.15;;;7.03;;
68192;SDS011;55012;47.562;18.414;2022-07-29T00:48:30;13.38;;;7.68;;
68192;SDS011;55012;47.562;18.414;2022-07-29T00:50:58;16.08;;;8.80;;
68192;SDS011;55012;47.562;18.414;2022-07-29T00:53:26;12.40;;;6.57;;
68192;SDS011;55012;47.562;18.414;2022-07-29T00:55:53;12.65;;;7.60;;
68192;SDS011;55012;47.562;18.414;2022-07-29T00:58:20;16.42;;;9.25;;
68192;SDS011;55012;47.562;18.414;2022-07-29T01:00:46;19.80;;;9.38;;
68192;SDS011;55012;47.562;18.414;2022-07-29T01:03:11;18.00;;;9.82;;
68192;SDS011;55012;47.562;18.414;2022-07-29T01:05:37;19.38;;;10.48;;
68192;SDS011;55012;47.562;18.414;2022-07-29T01:08:05;21.98;;;11.55;;
68192;SDS011;55012;47.562;18.414;2022-07-29T01:10:31;21.17;;;11.68;;
68192;SDS011;55012;47.562;18.414;2022-07-29T01:12:58;19.25;;;9.07;;
68192;SDS011;55012;47.562;18.414;2022-07-29T01:15:26;19.88;;;8.93;;
68192;SDS011;55012;47.562;18.414;2022-07-29T01:18:53;19.83;;;9.85;;
68192;SDS011;55012;47.562;18.414;2022-07-29T01:32:02;9.55;;;5.75;;
68192;SDS011;55012;47.562;18.414;2022-07-29T01:35:04;8.85;;;4.90;;
68192;SDS011;55012;47.562;18.414;2022-07-29T01:37:35;10.75;;;5.53;;
68192;SDS011;55012;47.562;18.414;2022-07-29T01:40:09;13.15;;;5.28;;
68192;SDS011;55012;47.562;18.414;2022-07-29T01:42:43;14.88;;;6.85;;
68192;SDS011;55012;47.562;18.414;2022-07-29T01:46:11;11.55;;;5.30;;
68192;SDS011;55012;47.562;18.414;2022-07-29T01:48:13;9.48;;;5.10;;
68192;SDS011;55012;47.562;18.414;2022-07-29T01:50:47;13.07;;;5.60;;
68192;SDS011;55012;47.562;18.414;2022-07-29T01:53:17;6.82;;;4.70;;
68192;SDS011;55012;47.562;18.414;2022-07-29T01:55:50;7.90;;;5.75;;
68192;SDS011;55012;47.562;18.414;2022-07-29T01:58:18;9.75;;;5.13;;
68192;SDS011;55012;47.562;18.414;2022-07-29T02:00:44;9.85;;;5.45;;
68192;SDS011;55012;47.562;18.414;2022-07-29T02:03:13;13.65;;;5.47;;
68192;SDS011;55012;47.562;18.414;2022-07-29T02:05:42;16.00;;;5.75;;
68192;SDS011;55012;47.562;18.414;2022-07-29T02:08:11;17.52;;;6.38;;
68192;SDS011;55012;47.562;18.414;2022-07-29T02:10:39;15.13;;;6.57;;
68192;SDS011;55012;47.562;18.414;2022-07-29T02:13:05;25.38;;;6.82;;
68192;SDS011;55012;47.562;18.414;2022-07-29T02:15:33;19.95;;;7.13;;
68192;SDS011;55012;47.562;18.414;2022-07-29T02:18:07;24.95;;;7.43;;
68192;SDS011;55012;47.562;18.414;2022-07-29T02:20:36;16.88;;;7.10;;
68192;SDS011;55012;47.562;18.414;2022-07-29T02:23:03;27.02;;;7.88;;
68192;SDS011;55012;47.562;18.414;2022-07-29T02:25:29;9.73;;;5.85;;
68192;SDS011;55012;47.562;18.414;2022-07-29T02:27:56;13.45;;;6.70;;
68192;SDS011;55012;47.562;18.414;2022-07-29T02:30:25;17.58;;;6.45;;
68192;SDS011;55012;47.562;18.414;2022-07-29T02:32:52;12.38;;;6.47;;
68192;SDS011;55012;47.562;18.414;2022-07-29T02:35:18;11.35;;;5.85;;
68192;SDS011;55012;47.562;18.414;2022-07-29T02:37:46;9.50;;;6.00;;
68192;SDS011;55012;47.562;18.414;2022-07-29T02:42:58;12.65;;;5.60;;
68192;SDS011;55012;47.562;18.414;2022-07-29T02:45:24;8.82;;;5.18;;
68192;SDS011;55012;47.562;18.414;2022-07-29T02:47:50;11.23;;;5.45;;
68192;SDS011;55012;47.562;18.414;2022-07-29T02:50:24;8.38;;;5.32;;
68192;SDS011;55012;47.562;18.414;2022-07-29T02:53:05;7.80;;;5.65;;
68192;SDS011;55012;47.562;18.414;2022-07-29T02:55:35;10.18;;;5.57;;
68192;SDS011;55012;47.562;18.414;2022-07-29T02:58:07;11.85;;;5.80;;
68192;SDS011;55012;47.562;18.414;2022-07-29T03:00:39;10.63;;;5.40;;
68192;SDS011;55012;47.562;18.414;2022-07-29T03:03:09;8.43;;;5.35;;
68192;SDS011;55012;47.562;18.414;2022-07-29T03:05:37;11.68;;;5.57;;
68192;SDS011;55012;47.562;18.414;2022-07-29T03:08:04;11.25;;;5.53;;
68192;SDS011;55012;47.562;18.414;2022-07-29T03:10:31;11.93;;;5.15;;
68192;SDS011;55012;47.562;18.414;2022-07-29T03:12:58;14.70;;;5.95;;
68192;SDS011;55012;47.562;18.414;2022-07-29T03:15:25;10.25;;;5.90;;
68192;SDS011;55012;47.562;18.414;2022-07-29T03:17:51;12.57;;;5.50;;
68192;SDS011;55012;47.562;18.414;2022-07-29T03:20:18;13.90;;;6.05;;
68192;SDS011;55012;47.562;18.414;2022-07-29T03:22:44;10.45;;;5.47;;
68192;SDS011;55012;47.562;18.414;2022-07-29T03:25:13;9.73;;;5.35;;
68192;SDS011;55012;47.562;18.414;2022-07-29T03:27:41;8.93;;;5.70;;
68192;SDS011;55012;47.562;18.414;2022-07-29T03:30:07;9.35;;;5.20;;
68192;SDS011;55012;47.562;18.414;2022-07-29T03:32:34;6.97;;;5.20;;
68192;SDS011;55012;47.562;18.414;2022-07-29T03:34:59;7.00;;;5.28;;
68192;SDS011;55012;47.562;18.414;2022-07-29T03:37:25;7.07;;;5.28;;
68192;SDS011;55012;47.562;18.414;2022-07-29T03:39:51;6.93;;;5.00;;
68192;SDS011;55012;47.562;18.414;2022-07-29T03:42:20;12.50;;;5.80;;
68192;SDS011;55012;47.562;18.414;2022-07-29T03:44:48;11.15;;;6.57;;
68192;SDS011;55012;47.562;18.414;2022-07-29T03:47:16;21.40;;;8.32;;
68192;SDS011;55012;47.562;18.414;2022-07-29T03:49:44;23.40;;;7.60;;
68192;SDS011;55012;47.562;18.414;2022-07-29T03:52:13;22.45;;;8.60;;
68192;SDS011;55012;47.562;18.414;2022-07-29T03:54:39;19.75;;;12.00;;
68192;SDS011;55012;47.562;18.414;2022-07-29T03:57:05;36.75;;;17.73;;
68192;SDS011;55012;47.562;18.414;2022-07-29T03:59:32;44.45;;;18.83;;
68192;SDS011;55012;47.562;18.414;2022-07-29T04:02:02;36.03;;;16.70;;
68192;SDS011;55012;47.562;18.414;2022-07-29T04:04:31;29.13;;;13.98;;
68192;SDS011;55012;47.562;18.414;2022-07-29T04:06:58;24.42;;;9.90;;
68192;SDS011;55012;47.562;18.414;2022-07-29T04:09:23;14.57;;;7.40;;
68192;SDS011;55012;47.562;18.414;2022-07-29T04:11:49;12.93;;;6.68;;
68192;SDS011;55012;47.562;18.414;2022-07-29T04:14:15;9.85;;;6.80;;
68192;SDS011;55012;47.562;18.414;2022-07-29T04:16:40;10.20;;;6.32;;
68192;SDS011;55012;47.562;18.414;2022-07-29T04:19:06;10.57;;;6.40;;
68192;SDS011;55012;47.562;18.414;2022-07-29T04:21:36;10.65;;;6.25;;
68192;SDS011;55012;47.562;18.414;2022-07-29T04:24:02;12.80;;;6.65;;
68192;SDS011;55012;47.562;18.414;2022-07-29T04:26:28;24.02;;;7.32;;
68192;SDS011;55012;47.562;18.414;2022-07-29T04:28:53;16.25;;;6.00;;
68192;SDS011;55012;47.562;18.414;2022-07-29T04:31:18;19.63;;;7.10;;
68192;SDS011;55012;47.562;18.414;2022-07-29T04:33:44;13.65;;;6.32;;
68192;SDS011;55012;47.562;18.414;2022-07-29T04:36:09;15.88;;;6.63;;
68192;SDS011;55012;47.562;18.414;2022-07-29T04:38:36;7.70;;;5.90;;
68192;SDS011;55012;47.562;18.414;2022-07-29T04:41:02;9.57;;;5.97;;
68192;SDS011;55012;47.562;18.414;2022-07-29T04:43:27;8.63;;;5.80;;
68192;SDS011;55012;47.562;18.414;2022-07-29T04:45:53;7.88;;;5.80;;
68192;SDS011;55012;47.562;18.414;2022-07-29T04:48:18;9.65;;;5.43;;
68192;SDS011;55012;47.562;18.414;2022-07-29T04:50:44;7.00;;;5.05;;
68192;SDS011;55012;47.562;18.414;2022-07-29T04:53:09;7.45;;;5.88;;
68192;SDS011;55012;47.562;18.414;2022-07-29T04:55:34;7.45;;;5.00;;
68192;SDS011;55012;47.562;18.414;2022-07-29T04:58:01;7.57;;;5.28;;
68192;SDS011;55012;47.562;18.414;2022-07-29T05:00:27;9.15;;;4.90;;
68192;SDS011;55012;47.562;18.414;2022-07-29T05:02:52;6.13;;;5.28;;
68192;SDS011;55012;47.562;18.414;2022-07-29T05:05:18;6.28;;;5.38;;
68192;SDS011;55012;47.562;18.414;2022-07-29T05:07:43;5.55;;;5.05;;
68192;SDS011;55012;47.562;18.414;2022-07-29T05:10:09;6.20;;;5.25;;
68192;SDS011;55012;47.562;18.414;2022-07-29T05:12:34;7.47;;;5.72;;
68192;SDS011;55012;47.562;18.414;2022-07-29T05:15:00;6.00;;;5.40;;
68192;SDS011;55012;47.562;18.414;2022-07-29T05:17:26;6.03;;;5.22;;
68192;SDS011;55012;47.562;18.414;2022-07-29T05:19:51;8.30;;;5.10;;
68192;SDS011;55012;47.562;18.414;2022-07-29T05:22:20;8.13;;;5.45;;
68192;SDS011;55012;47.562;18.414;2022-07-29T05:24:46;7.68;;;5.50;;
68192;SDS011;55012;47.562;18.414;2022-07-29T05:27:12;8.18;;;5.20;;
68192;SDS011;55012;47.562;18.414;2022-07-29T05:29:38;10.07;;;5.90;;
68192;SDS011;55012;47.562;18.414;2022-07-29T05:32:04;8.30;;;5.53;;
68192;SDS011;55012;47.562;18.414;2022-07-29T05:34:30;8.15;;;5.68;;
68192;SDS011;55012;47.562;18.414;2022-07-29T05:36:56;6.40;;;5.20;;
68192;SDS011;55012;47.562;18.414;2022-07-29T05:39:22;8.93;;;5.45;;
68192;SDS011;55012;47.562;18.414;2022-07-29T05:41:48;8.27;;;5.95;;
68192;SDS011;55012;47.562;18.414;2022-07-29T05:44:13;9.82;;;5.63;;
68192;SDS011;55012;47.562;18.414;2022-07-29T05:46:39;14.27;;;5.90;;
68192;SDS011;55012;47.562;18.414;2022-07-29T05:49:04;11.48;;;5.88;;
68192;SDS011;55012;47.562;18.414;2022-07-29T05:51:31;12.07;;;6.20;;
68192;SDS011;55012;47.562;18.414;2022-07-29T05:53:57;12.02;;;5.90;;
68192;SDS011;55012;47.562;18.414;2022-07-29T05:56:23;11.70;;;6.20;;
68192;SDS011;55012;47.562;18.414;2022-07-29T05:58:49;13.23;;;6.30;;
68192;SDS011;55012;47.562;18.414;2022-07-29T06:01:15;10.60;;;7.57;;
68192;SDS011;55012;47.562;18.414;2022-07-29T06:03:41;14.35;;;9.77;;
68192;SDS011;55012;47.562;18.414;2022-07-29T06:06:07;17.00;;;11.73;;
68192;SDS011;55012;47.562;18.414;2022-07-29T06:08:32;19.58;;;14.13;;
68192;SDS011;55012;47.562;18.414;2022-07-29T06:10:59;19.25;;;14.15;;
68192;SDS011;55012;47.562;18.414;2022-07-29T06:13:25;21.75;;;15.63;;
68192;SDS011;55012;47.562;18.414;2022-07-29T06:15:50;25.00;;;16.08;;
68192;SDS011;55012;47.562;18.414;2022-07-29T06:18:16;17.70;;;11.90;;
68192;SDS011;55012;47.562;18.414;2022-07-29T06:20:41;13.40;;;9.68;;
68192;SDS011;55012;47.562;18.414;2022-07-29T06:23:07;11.60;;;8.63;;
68192;SDS011;55012;47.562;18.414;2022-07-29T06:25:32;13.88;;;8.30;;
68192;SDS011;55012;47.562;18.414;2022-07-29T06:28:00;10.43;;;7.50;;
68192;SDS011;55012;47.562;18.414;2022-07-29T06:30:26;10.43;;;7.00;;
68192;SDS011;55012;47.562;18.414;2022-07-29T06:32:51;8.48;;;7.03;;
68192;SDS011;55012;47.562;18.414;2022-07-29T06:35:17;8.88;;;6.20;;
68192;SDS011;55012;47.562;18.414;2022-07-29T06:37:43;8.18;;;6.45;;
68192;SDS011;55012;47.562;18.414;2022-07-29T06:40:08;14.10;;;7.93;;
68192;SDS011;55012;47.562;18.414;2022-07-29T06:42:53;10.23;;;7.28;;
68192;SDS011;55012;47.562;18.414;2022-07-29T06:45:18;10.43;;;7.18;;
68192;SDS011;55012;47.562;18.414;2022-07-29T06:47:44;10.95;;;7.28;;
68192;SDS011;55012;47.562;18.414;2022-07-29T06:50:09;9.77;;;6.85;;
68192;SDS011;55012;47.562;18.414;2022-07-29T06:52:37;10.95;;;7.97;;
68192;SDS011;55012;47.562;18.414;2022-07-29T06:55:04;10.95;;;8.43;;
68192;SDS011;55012;47.562;18.414;2022-07-29T06:57:30;12.93;;;8.77;;
68192;SDS011;55012;47.562;18.414;2022-07-29T06:59:58;10.60;;;7.68;;
68192;SDS011;55012;47.562;18.414;2022-07-29T07:02:24;10.63;;;8.25;;
68192;SDS011;55012;47.562;18.414;2022-07-29T07:04:49;9.75;;;8.05;;
68192;SDS011;55012;47.562;18.414;2022-07-29T07:07:15;9.18;;;7.78;;
68192;SDS011;55012;47.562;18.414;2022-07-29T07:09:40;9.82;;;7.32;;
68192;SDS011;55012;47.562;18.414;2022-07-29T07:12:06;10.60;;;7.70;;
68192;SDS011;55012;47.562;18.414;2022-07-29T07:14:32;10.57;;;7.90;;
68192;SDS011;55012;47.562;18.414;2022-07-29T07:16:58;10.10;;;8.00;;
68192;SDS011;55012;47.562;18.414;2022-07-29T07:19:25;9.65;;;7.20;;
68192;SDS011;55012;47.562;18.414;2022-07-29T07:21:52;9.02;;;6.32;;
68192;SDS011;55012;47.562;18.414;2022-07-29T07:24:18;10.40;;;6.70;;
68192;SDS011;55012;47.562;18.414;2022-07-29T07:26:43;10.23;;;6.50;;
68192;SDS011;55012;47.562;18.414;2022-07-29T07:29:09;8.40;;;6.50;;
68192;SDS011;55012;47.562;18.414;2022-07-29T07:31:35;8.20;;;6.60;;
68192;SDS011;55012;47.562;18.414;2022-07-29T07:34:01;8.52;;;6.30;;
68192;SDS011;55012;47.562;18.414;2022-07-29T07:36:27;7.80;;;6.35;;
68192;SDS011;55012;47.562;18.414;2022-07-29T07:38:52;8.27;;;6.50;;
68192;SDS011;55012;47.562;18.414;2022-07-29T07:41:18;8.48;;;6.45;;
68192;SDS011;55012;47.562;18.414;2022-07-29T07:43:43;8.07;;;6.28;;
68192;SDS011;55012;47.562;18.414;2022-07-29T07:46:09;9.35;;;6.20;;
68192;SDS011;55012;47.562;18.414;2022-07-29T07:48:34;8.90;;;6.45;;
68192;SDS011;55012;47.562;18.414;2022-07-29T07:51:00;7.72;;;6.43;;
68192;SDS011;55012;47.562;18.414;2022-07-29T07:53:26;13.50;;;6.30;;
68192;SDS011;55012;47.562;18.414;2022-07-29T07:55:52;12.18;;;6.53;;
68192;SDS011;55012;47.562;18.414;2022-07-29T07:58:17;9.73;;;6.88;;
68192;SDS011;55012;47.562;18.414;2022-07-29T08:00:43;8.90;;;6.45;;
68192;SDS011;55012;47.562;18.414;2022-07-29T08:03:08;7.85;;;6.40;;
68192;SDS011;55012;47.562;18.414;2022-07-29T08:05:37;8.43;;;6.50;;
68192;SDS011;55012;47.562;18.414;2022-07-29T08:08:03;9.30;;;6.43;;
68192;SDS011;55012;47.562;18.414;2022-07-29T08:10:28;7.93;;;6.47;;
68192;SDS011;55012;47.562;18.414;2022-07-29T08:13:12;7.95;;;5.90;;
68192;SDS011;55012;47.562;18.414;2022-07-29T08:15:38;9.23;;;6.10;;
68192;SDS011;55012;47.562;18.414;2022-07-29T08:18:05;9.68;;;6.85;;
68192;SDS011;55012;47.562;18.414;2022-07-29T08:20:31;8.52;;;6.13;;
68192;SDS011;55012;47.562;18.414;2022-07-29T08:22:59;8.73;;;6.22;;
68192;SDS011;55012;47.562;18.414;2022-07-29T08:25:24;8.10;;;6.13;;
68192;SDS011;55012;47.562;18.414;2022-07-29T08:27:50;10.07;;;6.20;;
68192;SDS011;55012;47.562;18.414;2022-07-29T08:30:15;9.63;;;6.70;;
68192;SDS011;55012;47.562;18.414;2022-07-29T08:32:41;9.80;;;6.30;;
68192;SDS011;55012;47.562;18.414;2022-07-29T08:35:06;10.02;;;6.22;;
68192;SDS011;55012;47.562;18.414;2022-07-29T08:37:32;9.35;;;6.07;;
68192;SDS011;55012;47.562;18.414;2022-07-29T08:39:58;7.00;;;6.00;;
68192;SDS011;55012;47.562;18.414;2022-07-29T08:42:23;7.45;;;6.32;;
68192;SDS011;55012;47.562;18.414;2022-07-29T08:44:49;7.15;;;6.07;;
68192;SDS011;55012;47.562;18.414;2022-07-29T08:47:15;6.97;;;5.97;;
68192;SDS011;55012;47.562;18.414;2022-07-29T08:49:41;8.15;;;5.85;;
68192;SDS011;55012;47.562;18.414;2022-07-29T08:52:07;7.78;;;6.03;;
68192;SDS011;55012;47.562;18.414;2022-07-29T08:54:35;7.50;;;6.00;;
68192;SDS011;55012;47.562;18.414;2022-07-29T08:57:01;8.93;;;5.90;;
68192;SDS011;55012;47.562;18.414;2022-07-29T08:59:27;9.23;;;6.00;;
68192;SDS011;55012;47.562;18.414;2022-07-29T09:01:55;9.10;;;5.82;;
68192;SDS011;55012;47.562;18.414;2022-07-29T09:04:24;7.78;;;5.93;;
68192;SDS011;55012;47.562;18.414;2022-07-29T09:06:54;7.30;;;5.72;;
68192;SDS011;55012;47.562;18.414;2022-07-29T09:09:25;8.13;;;5.85;;
68192;SDS011;55012;47.562;18.414;2022-07-29T09:11:51;8.02;;;5.72;;
68192;SDS011;55012;47.562;18.414;2022-07-29T09:14:18;9.32;;;6.25;;
68192;SDS011;55012;47.562;18.414;2022-07-29T09:16:47;15.30;;;6.43;;
68192;SDS011;55012;47.562;18.414;2022-07-29T09:21:50;8.65;;;6.10;;
68192;SDS011;55012;47.562;18.414;2022-07-29T09:24:38;10.05;;;6.03;;
68192;SDS011;55012;47.562;18.414;2022-07-29T09:27:10;8.85;;;5.85;;
68192;SDS011;55012;47.562;18.414;2022-07-29T09:29:43;8.10;;;5.45;;
68192;SDS011;55012;47.562;18.414;2022-07-29T09:32:09;7.78;;;5.70;;
68192;SDS011;55012;47.562;18.414;2022-07-29T09:34:36;7.70;;;6.03;;
68192;SDS011;55012;47.562;18.414;2022-07-29T09:37:02;9.95;;;6.00;;
68192;SDS011;55012;47.562;18.414;2022-07-29T09:41:58;9.50;;;5.88;;
68192;SDS011;55012;47.562;18.414;2022-07-29T09:44:26;11.50;;;6.60;;
68192;SDS011;55012;47.562;18.414;2022-07-29T09:47:05;6.78;;;5.70;;
68192;SDS011;55012;47.562;18.414;2022-07-29T09:49:34;6.82;;;5.95;;
68192;SDS011;55012;47.562;18.414;2022-07-29T09:54:28;10.10;;;5.97;;
68192;SDS011;55012;47.562;18.414;2022-07-29T09:56:59;9.57;;;5.90;;
68192;SDS011;55012;47.562;18.414;2022-07-29T09:59:24;9.93;;;6.07;;
68192;SDS011;55012;47.562;18.414;2022-07-29T10:01:51;10.60;;;5.70;;
68192;SDS011;55012;47.562;18.414;2022-07-29T10:04:18;7.90;;;5.28;;
68192;SDS011;55012;47.562;18.414;2022-07-29T10:07:00;6.35;;;4.93;;
68192;SDS011;55012;47.562;18.414;2022-07-29T10:09:29;8.15;;;5.20;;
68192;SDS011;55012;47.562;18.414;2022-07-29T10:14:34;7.95;;;4.80;;
68192;SDS011;55012;47.562;18.414;2022-07-29T10:17:01;6.05;;;4.65;;
68192;SDS011;55012;47.562;18.414;2022-07-29T10:19:28;6.93;;;4.38;;
68192;SDS011;55012;47.562;18.414;2022-07-29T10:21:56;4.90;;;4.40;;
68192;SDS011;55012;47.562;18.414;2022-07-29T10:24:24;5.97;;;4.40;;
68192;SDS011;55012;47.562;18.414;2022-07-29T10:26:58;8.98;;;4.57;;
68192;SDS011;55012;47.562;18.414;2022-07-29T10:29:26;6.35;;;4.22;;
68192;SDS011;55012;47.562;18.414;2022-07-29T10:42:48;8.40;;;4.90;;
68192;SDS011;55012;47.562;18.414;2022-07-29T10:45:16;7.22;;;4.50;;
68192;SDS011;55012;47.562;18.414;2022-07-29T10:47:42;6.22;;;4.85;;
68192;SDS011;55012;47.562;18.414;2022-07-29T10:50:08;5.93;;;4.43;;
68192;SDS011;55012;47.562;18.414;2022-07-29T10:58:11;5.82;;;4.30;;
68192;SDS011;55012;47.562;18.414;2022-07-29T11:00:45;4.97;;;4.15;;
68192;SDS011;55012;47.562;18.414;2022-07-29T11:06:06;5.25;;;4.07;;
68192;SDS011;55012;47.562;18.414;2022-07-29T11:08:32;8.85;;;4.20;;
68192;SDS011;55012;47.562;18.414;2022-07-29T11:13:45;4.80;;;4.30;;
68192;SDS011;55012;47.562;18.414;2022-07-29T11:16:20;7.03;;;4.30;;
68192;SDS011;55012;47.562;18.414;2022-07-29T11:21:41;4.95;;;3.92;;
68192;SDS011;55012;47.562;18.414;2022-07-29T11:24:11;6.82;;;4.50;;
68192;SDS011;55012;47.562;18.414;2022-07-29T11:29:57;6.03;;;4.15;;
68192;SDS011;55012;47.562;18.414;2022-07-29T11:32:23;7.55;;;4.60;;
68192;SDS011;55012;47.562;18.414;2022-07-29T11:35:10;7.47;;;4.70;;
68192;SDS011;55012;47.562;18.414;2022-07-29T11:37:47;6.63;;;4.60;;
68192;SDS011;55012;47.562;18.414;2022-07-29T11:43:55;6.80;;;4.40;;
68192;SDS011;55012;47.562;18.414;2022-07-29T11:51:53;6.55;;;4.68;;
68192;SDS011;55012;47.562;18.414;2022-07-29T11:54:24;5.32;;;4.32;;
68192;SDS011;55012;47.562;18.414;2022-07-29T11:56:51;7.40;;;4.97;;
68192;SDS011;55012;47.562;18.414;2022-07-29T11:59:18;6.05;;;4.70;;
68192;SDS011;55012;47.562;18.414;2022-07-29T12:01:54;5.60;;;4.60;;
68192;SDS011;55012;47.562;18.414;2022-07-29T12:04:20;6.65;;;4.70;;
68192;SDS011;55012;47.562;18.414;2022-07-29T12:06:51;8.70;;;4.90;;
68192;SDS011;55012;47.562;18.414;2022-07-29T12:09:18;7.65;;;4.88;;
68192;SDS011;55012;47.562;18.414;2022-07-29T12:11:45;7.13;;;4.95;;
68192;SDS011;55012;47.562;18.414;2022-07-29T12:14:25;6.75;;;4.72;;
68192;SDS011;55012;47.562;18.414;2022-07-29T12:16:54;5.93;;;4.85;;
68192;SDS011;55012;47.562;18.414;2022-07-29T12:19:20;7.13;;;4.72;;
68192;SDS011;55012;47.562;18.414;2022-07-29T12:21:46;7.18;;;4.88;;
68192;SDS011;55012;47.562;18.414;2022-07-29T12:24:13;7.60;;;4.65;;
68192;SDS011;55012;47.562;18.414;2022-07-29T12:29:21;6.90;;;4.82;;
68192;SDS011;55012;47.562;18.414;2022-07-29T12:31:48;6.72;;;4.80;;
68192;SDS011;55012;47.562;18.414;2022-07-29T12:34:19;5.85;;;4.35;;
68192;SDS011;55012;47.562;18.414;2022-07-29T12:36:47;5.75;;;4.70;;
68192;SDS011;55012;47.562;18.414;2022-07-29T12:39:15;5.28;;;4.70;;
68192;SDS011;55012;47.562;18.414;2022-07-29T12:41:42;5.90;;;4.68;;
68192;SDS011;55012;47.562;18.414;2022-07-29T12:44:08;6.45;;;4.50;;
68192;SDS011;55012;47.562;18.414;2022-07-29T12:46:34;7.68;;;4.85;;
68192;SDS011;55012;47.562;18.414;2022-07-29T12:49:00;5.88;;;5.20;;
68192;SDS011;55012;47.562;18.414;2022-07-29T12:51:29;5.10;;;4.60;;
68192;SDS011;55012;47.562;18.414;2022-07-29T12:56:29;5.10;;;4.60;;
68192;SDS011;55012;47.562;18.414;2022-07-29T12:58:55;6.55;;;4.93;;
68192;SDS011;55012;47.562;18.414;2022-07-29T13:01:21;6.97;;;4.55;;
68192;SDS011;55012;47.562;18.414;2022-07-29T13:04:54;8.02;;;4.80;;
68192;SDS011;55012;47.562;18.414;2022-07-29T13:06:57;8.02;;;5.00;;
68192;SDS011;55012;47.562;18.414;2022-07-29T13:09:35;8.25;;;4.75;;
68192;SDS011;55012;47.562;18.414;2022-07-29T13:12:05;7.65;;;4.65;;
68192;SDS011;55012;47.562;18.414;2022-07-29T13:14:33;10.43;;;4.60;;
68192;SDS011;55012;47.562;18.414;2022-07-29T13:17:00;7.40;;;4.88;;
68192;SDS011;55012;47.562;18.414;2022-07-29T13:22:02;7.05;;;4.80;;
68192;SDS011;55012;47.562;18.414;2022-07-29T13:24:28;7.63;;;4.85;;
68192;SDS011;55012;47.562;18.414;2022-07-29T13:26:54;7.10;;;4.70;;
68192;SDS011;55012;47.562;18.414;2022-07-29T13:29:19;10.25;;;4.88;;
68192;SDS011;55012;47.562;18.414;2022-07-29T13:31:44;8.05;;;4.78;;
68192;SDS011;55012;47.562;18.414;2022-07-29T13:34:10;13.60;;;4.88;;
68192;SDS011;55012;47.562;18.414;2022-07-29T13:36:36;7.18;;;4.80;;
68192;SDS011;55012;47.562;18.414;2022-07-29T13:39:01;7.10;;;4.70;;
68192;SDS011;55012;47.562;18.414;2022-07-29T13:41:28;6.15;;;4.50;;
68192;SDS011;55012;47.562;18.414;2022-07-29T13:43:53;8.50;;;4.47;;
68192;SDS011;55012;47.562;18.414;2022-07-29T13:46:19;7.35;;;4.65;;
68192;SDS011;55012;47.562;18.414;2022-07-29T13:48:45;7.65;;;4.30;;
68192;SDS011;55012;47.562;18.414;2022-07-29T13:51:10;7.18;;;4.57;;
68192;SDS011;55012;47.562;18.414;2022-07-29T13:53:36;7.68;;;4.60;;
68192;SDS011;55012;47.562;18.414;2022-07-29T13:56:01;10.45;;;4.38;;
68192;SDS011;55012;47.562;18.414;2022-07-29T13:58:27;4.85;;;4.22;;
68192;SDS011;55012;47.562;18.414;2022-07-29T14:00:53;8.55;;;4.50;;
68192;SDS011;55012;47.562;18.414;2022-07-29T14:03:18;6.45;;;4.40;;
68192;SDS011;55012;47.562;18.414;2022-07-29T14:05:44;4.40;;;4.00;;
68192;SDS011;55012;47.562;18.414;2022-07-29T14:08:09;5.28;;;4.05;;
68192;SDS011;55012;47.562;18.414;2022-07-29T14:10:36;6.32;;;4.15;;
68192;SDS011;55012;47.562;18.414;2022-07-29T14:13:01;4.68;;;3.85;;
68192;SDS011;55012;47.562;18.414;2022-07-29T14:15:27;5.45;;;4.40;;
68192;SDS011;55012;47.562;18.414;2022-07-29T14:17:52;6.70;;;4.13;;
68192;SDS011;55012;47.562;18.414;2022-07-29T14:20:18;4.53;;;3.92;;
68192;SDS011;55012;47.562;18.414;2022-07-29T14:22:43;4.40;;;3.63;;
68192;SDS011;55012;47.562;18.414;2022-07-29T14:25:09;5.07;;;3.80;;
68192;SDS011;55012;47.562;18.414;2022-07-29T14:27:34;6.00;;;4.20;;
68192;SDS011;55012;47.562;18.414;2022-07-29T14:30:00;6.40;;;3.85;;
68192;SDS011;55012;47.562;18.414;2022-07-29T14:32:25;6.75;;;4.05;;
68192;SDS011;55012;47.562;18.414;2022-07-29T14:34:51;4.40;;;3.75;;
68192;SDS011;55012;47.562;18.414;2022-07-29T14:37:16;3.90;;;3.60;;
68192;SDS011;55012;47.562;18.414;2022-07-29T14:39:42;4.43;;;3.50;;
68192;SDS011;55012;47.562;18.414;2022-07-29T14:42:07;4.13;;;3.72;;
68192;SDS011;55012;47.562;18.414;2022-07-29T14:44:33;4.50;;;4.07;;
68192;SDS011;55012;47.562;18.414;2022-07-29T14:46:58;7.45;;;4.10;;
68192;SDS011;55012;47.562;18.414;2022-07-29T14:49:25;5.30;;;4.18;;
68192;SDS011;55012;47.562;18.414;2022-07-29T14:51:51;7.70;;;4.28;;
68192;SDS011;55012;47.562;18.414;2022-07-29T14:54:17;5.65;;;3.70;;
68192;SDS011;55012;47.562;18.414;2022-07-29T14:56:42;7.93;;;3.78;;
68192;SDS011;55012;47.562;18.414;2022-07-29T14:59:08;5.88;;;3.80;;
68192;SDS011;55012;47.562;18.414;2022-07-29T15:01:33;4.75;;;4.15;;
68192;SDS011;55012;47.562;18.414;2022-07-29T15:03:59;4.85;;;4.30;;
68192;SDS011;55012;47.562;18.414;2022-07-29T15:06:24;5.63;;;4.10;;
68192;SDS011;55012;47.562;18.414;2022-07-29T15:08:50;7.25;;;4.35;;
68192;SDS011;55012;47.562;18.414;2022-07-29T15:11:15;4.97;;;3.75;;
68192;SDS011;55012;47.562;18.414;2022-07-29T15:13:41;5.55;;;4.10;;
68192;SDS011;55012;47.562;18.414;2022-07-29T15:16:06;6.03;;;4.05;;
68192;SDS011;55012;47.562;18.414;2022-07-29T15:18:32;4.85;;;4.05;;
68192;SDS011;55012;47.562;18.414;2022-07-29T15:20:57;5.05;;;4.20;;
68192;SDS011;55012;47.562;18.414;2022-07-29T15:23:25;4.63;;;3.88;;
68192;SDS011;55012;47.562;18.414;2022-07-29T15:25:50;5.15;;;3.90;;
68192;SDS011;55012;47.562;18.414;2022-07-29T15:28:16;7.65;;;4.00;;
68192;SDS011;55012;47.562;18.414;2022-07-29T15:30:41;4.32;;;3.90;;
68192;SDS011;55012;47.562;18.414;2022-07-29T15:33:08;4.40;;;4.00;;
68192;SDS011;55012;47.562;18.414;2022-07-29T15:35:34;5.60;;;4.20;;
68192;SDS011;55012;47.562;18.414;2022-07-29T15:38:00;6.03;;;4.45;;
68192;SDS011;55012;47.562;18.414;2022-07-29T15:40:26;4.43;;;3.80;;